Time;durP1;ratioP1;P1;durP2;ratioP2;P2;SDS_P1;SDS_P2;PMS_P1;PMS_P2;Temp;Humidity;BMP_temperature;BMP_pressure;BME280_temperature;BME280_humidity;BME280_pressure;Samples;Min_cycle;Max_cycle;Signal;HPM_P1;HPM_P2
2021/01/20 00:02:09;;;;;;;5.63;4.33;;;7.60;99.90;;;;;;5071998;28;20187;-75
2021/01/20 00:04:37;;;;;;;4.17;3.77;;;7.70;99.90;;;;;;5063597;28;20276;-75
2021/01/20 00:07:02;;;;;;;6.63;4.17;;;7.60;99.90;;;;;;5081567;28;20180;-75
2021/01/20 00:09:28;;;;;;;4.07;3.20;;;7.80;99.90;;;;;;5089574;28;20437;-75
2021/01/20 00:11:54;;;;;;;5.00;3.60;;;7.60;99.90;;;;;;5091380;28;20200;-75
2021/01/20 00:14:20;;;;;;;6.80;3.73;;;7.80;99.90;;;;;;5071996;28;20216;-75
2021/01/20 00:16:45;;;;;;;6.80;4.10;;;7.90;99.90;;;;;;5092392;28;20712;-75
2021/01/20 00:19:14;;;;;;;4.30;3.37;;;7.50;99.90;;;;;;5110964;28;20228;-75
2021/01/20 00:21:42;;;;;;;5.20;4.10;;;7.70;99.90;;;;;;5092524;28;20257;-75
2021/01/20 00:24:08;;;;;;;5.47;3.67;;;7.60;99.90;;;;;;5091875;28;20508;-75
2021/01/20 00:26:34;;;;;;;4.83;3.17;;;7.50;99.90;;;;;;5092286;28;20520;-75
2021/01/20 00:29:00;;;;;;;6.83;3.20;;;7.30;99.90;;;;;;5108910;28;20650;-75
2021/01/20 00:31:26;;;;;;;7.30;3.63;;;7.60;99.90;;;;;;5103766;28;20269;-75
2021/01/20 00:33:54;;;;;;;3.83;3.43;;;7.70;99.90;;;;;;5109875;28;20690;-75
2021/01/20 00:36:20;;;;;;;4.70;3.10;;;7.60;99.90;;;;;;5109146;28;20464;-75
2021/01/20 00:38:45;;;;;;;5.10;3.37;;;7.70;99.90;;;;;;5092238;28;20668;-75
2021/01/20 00:41:11;;;;;;;4.33;3.40;;;7.80;99.90;;;;;;5110637;28;20176;-75
2021/01/20 00:43:40;;;;;;;8.83;3.50;;;7.60;99.90;;;;;;5092363;28;20260;-76
2021/01/20 00:46:05;;;;;;;3.93;2.90;;;7.50;99.90;;;;;;5099030;28;20232;-75
2021/01/20 00:48:33;;;;;;;5.97;3.60;;;7.60;99.90;;;;;;5107117;27;20444;-75
2021/01/20 00:50:59;;;;;;;3.97;3.40;;;7.40;99.90;;;;;;5073698;28;20421;-76
2021/01/20 00:53:25;;;;;;;5.13;3.10;;;7.50;99.90;;;;;;5091195;28;20244;-75
2021/01/20 00:55:51;;;;;;;4.47;3.37;;;7.30;99.90;;;;;;5075199;28;20268;-75
2021/01/20 00:58:17;;;;;;;5.83;3.60;;;7.60;99.90;;;;;;5087843;28;20874;-75
2021/01/20 01:00:43;;;;;;;4.60;3.00;;;7.50;99.90;;;;;;5089844;28;20195;-75
2021/01/20 01:03:11;;;;;;;3.80;2.83;;;7.40;99.90;;;;;;5091430;28;20320;-75
2021/01/20 01:05:37;;;;;;;4.07;3.60;;;7.40;99.90;;;;;;5095603;28;20231;-75
2021/01/20 01:08:03;;;;;;;5.30;3.10;;;7.30;99.90;;;;;;5070052;28;20445;-75
2021/01/20 01:10:28;;;;;;;3.33;2.53;;;7.40;99.90;;;;;;5074594;28;20333;-75
2021/01/20 01:12:54;;;;;;;4.40;2.87;;;7.40;99.90;;;;;;5089776;28;20464;-75
2021/01/20 01:15:20;;;;;;;3.43;2.63;;;7.30;99.90;;;;;;5106506;28;21020;-75
2021/01/20 01:17:46;;;;;;;5.50;3.27;;;7.30;99.90;;;;;;5113954;27;20207;-75
2021/01/20 01:20:22;;;;;;;5.67;3.53;;;7.50;99.90;;;;;;5109756;28;20915;-75
2021/01/20 01:22:48;;;;;;;3.27;2.93;;;7.30;99.90;;;;;;5109643;28;20452;-74
2021/01/20 01:25:14;;;;;;;4.50;3.37;;;7.10;99.90;;;;;;5090636;28;20469;-75
2021/01/20 01:27:40;;;;;;;5.63;3.40;;;7.40;99.90;;;;;;5091009;28;20282;-75
2021/01/20 01:30:06;;;;;;;4.60;3.60;;;7.30;99.90;;;;;;5109539;27;20188;-75
2021/01/20 01:32:32;;;;;;;3.47;2.90;;;7.00;99.90;;;;;;5110306;27;20785;-75
2021/01/20 01:34:57;;;;;;;3.80;2.93;;;7.10;99.90;;;;;;5090047;28;20438;-75
2021/01/20 01:37:23;;;;;;;6.10;3.20;;;7.20;99.90;;;;;;5091179;28;20476;-75
2021/01/20 01:39:49;;;;;;;3.97;3.43;;;7.30;99.90;;;;;;5090947;28;20183;-74
2021/01/20 01:42:24;;;;;;;3.70;3.10;;;7.20;99.90;;;;;;5109440;28;20211;-75
2021/01/20 01:44:49;;;;;;;5.53;3.80;;;7.30;99.90;;;;;;5092219;27;20198;-75
2021/01/20 01:47:15;;;;;;;4.07;3.57;;;7.10;99.90;;;;;;5044682;28;20436;-74
2021/01/20 01:49:41;;;;;;;5.47;3.87;;;7.30;99.90;;;;;;5088304;28;20183;-76
2021/01/20 01:52:07;;;;;;;4.63;3.57;;;7.30;99.90;;;;;;5073992;28;20198;-75
2021/01/20 01:54:32;;;;;;;6.20;4.00;;;7.20;99.90;;;;;;5108654;28;20195;-74
2021/01/20 01:57:00;;;;;;;6.00;4.60;;;7.40;99.90;;;;;;5108696;28;20215;-74
2021/01/20 01:59:25;;;;;;;4.87;3.50;;;7.30;99.90;;;;;;5093512;28;20191;-74
2021/01/20 02:01:52;;;;;;;5.97;3.83;;;7.20;99.90;;;;;;5085497;27;20422;-74
2021/01/20 02:04:17;;;;;;;4.90;3.70;;;7.10;99.90;;;;;;5110097;28;20952;-74
2021/01/20 02:06:43;;;;;;;4.87;4.10;;;7.10;99.90;;;;;;5090436;28;20429;-74
2021/01/20 02:09:09;;;;;;;4.97;3.77;;;7.30;99.90;;;;;;5063376;28;20184;-75
2021/01/20 02:11:47;;;;;;;4.97;3.50;;;7.20;99.90;;;;;;5087288;28;20521;-74
2021/01/20 02:14:34;;;;;;;7.37;4.00;;;7.30;99.90;;;;;;5091502;28;20809;-75
2021/01/20 02:17:03;;;;;;;4.30;3.50;;;7.30;99.90;;;;;;5107742;27;20463;-74
2021/01/20 02:19:47;;;;;;;4.83;3.80;;;7.50;99.90;;;;;;5109763;28;20417;-75
2021/01/20 02:22:27;;;;;;;6.87;4.60;;;7.20;99.90;;;;;;5073475;28;20462;-74
2021/01/20 02:25:13;;;;;;;3.57;3.27;;;7.20;99.90;;;;;;5108093;28;20413;-74
2021/01/20 02:27:55;;;;;;;6.60;3.07;;;7.30;99.90;;;;;;5090185;28;20413;-74
2021/01/20 02:30:23;;;;;;;6.07;3.90;;;7.40;99.90;;;;;;5105656;28;20921;-74
2021/01/20 02:32:51;;;;;;;5.43;3.67;;;7.40;99.90;;;;;;5084531;28;20426;-74
2021/01/20 02:35:19;;;;;;;5.33;3.70;;;7.20;99.90;;;;;;5090569;28;20425;-74
2021/01/20 02:37:46;;;;;;;4.83;3.40;;;7.30;99.90;;;;;;5108215;28;20529;-75
2021/01/20 02:40:15;;;;;;;5.47;3.80;;;7.50;99.90;;;;;;5090269;28;20417;-74
2021/01/20 02:42:44;;;;;;;5.67;3.33;;;7.50;99.90;;;;;;5089901;28;20428;-75
2021/01/20 02:45:13;;;;;;;3.73;3.07;;;7.60;99.90;;;;;;5108837;28;20891;-75
2021/01/20 02:47:39;;;;;;;4.23;3.47;;;7.60;99.90;;;;;;5101422;28;20430;-74
2021/01/20 02:50:07;;;;;;;4.47;3.27;;;7.60;99.90;;;;;;5090207;28;20426;-74
2021/01/20 02:52:57;;;;;;;3.30;2.80;;;7.60;99.90;;;;;;5090082;28;20899;-74
2021/01/20 02:55:26;;;;;;;3.73;3.23;;;7.50;99.90;;;;;;5090137;28;20470;-74
2021/01/20 02:58:00;;;;;;;4.43;3.00;;;7.70;99.90;;;;;;5108286;28;20514;-75
2021/01/20 03:00:30;;;;;;;3.90;3.07;;;7.70;99.90;;;;;;5099599;28;20903;-75
2021/01/20 03:03:03;;;;;;;5.40;3.50;;;7.50;99.90;;;;;;5064323;28;20430;-74
2021/01/20 03:05:29;;;;;;;6.03;3.10;;;7.60;99.90;;;;;;5076532;28;21141;-74
2021/01/20 03:07:56;;;;;;;8.30;3.03;;;7.40;99.90;;;;;;5090139;28;20504;-74
2021/01/20 03:10:23;;;;;;;3.93;3.10;;;7.50;99.90;;;;;;5089941;28;20191;-75
2021/01/20 03:12:49;;;;;;;5.93;3.00;;;7.50;99.90;;;;;;5090175;28;20847;-74
2021/01/20 03:15:47;;;;;;;4.43;3.30;;;7.70;99.90;;;;;;5082963;28;20480;-74
2021/01/20 03:18:13;;;;;;;4.23;3.00;;;7.70;99.90;;;;;;5097565;28;20460;-74
2021/01/20 03:20:39;;;;;;;3.27;2.70;;;7.80;99.90;;;;;;5089936;28;20453;-74
2021/01/20 03:23:05;;;;;;;4.67;2.70;;;7.60;99.90;;;;;;5107476;28;20864;-75
2021/01/20 03:25:31;;;;;;;4.33;3.13;;;7.70;99.90;;;;;;5089916;28;20253;-74
2021/01/20 03:27:57;;;;;;;4.40;3.00;;;7.70;99.90;;;;;;5108702;28;21044;-74
2021/01/20 03:30:23;;;;;;;4.07;3.20;;;7.60;99.90;;;;;;5106378;28;20551;-75
2021/01/20 03:32:49;;;;;;;4.13;2.83;;;7.60;99.90;;;;;;5073817;28;20230;-74
2021/01/20 03:35:15;;;;;;;4.30;3.27;;;7.60;99.90;;;;;;5092958;28;20804;-74
2021/01/20 03:37:42;;;;;;;4.17;3.37;;;7.60;99.90;;;;;;5092920;28;20238;-75
2021/01/20 03:40:09;;;;;;;5.40;4.10;;;7.70;99.90;;;;;;5111588;28;20459;-75
2021/01/20 03:42:35;;;;;;;4.40;3.23;;;7.70;99.90;;;;;;5111479;28;20414;-75
2021/01/20 03:45:00;;;;;;;4.70;3.23;;;7.60;99.90;;;;;;5108885;28;20495;-74
2021/01/20 03:47:26;;;;;;;4.23;3.57;;;7.70;99.90;;;;;;5076148;28;20436;-75
2021/01/20 03:49:52;;;;;;;3.30;2.80;;;7.80;99.90;;;;;;5093237;28;20216;-75
2021/01/20 03:52:18;;;;;;;4.27;3.27;;;7.70;99.90;;;;;;5075957;28;20192;-75
2021/01/20 03:54:44;;;;;;;4.20;2.80;;;7.70;99.90;;;;;;5111014;28;20274;-75
2021/01/20 03:57:09;;;;;;;7.30;3.60;;;7.60;99.90;;;;;;5110787;28;20541;-75
2021/01/20 03:59:35;;;;;;;4.50;3.10;;;7.90;99.90;;;;;;5110481;28;20455;-74
2021/01/20 04:02:03;;;;;;;3.80;2.67;;;7.80;99.90;;;;;;5111860;27;20244;-74
2021/01/20 04:04:29;;;;;;;7.17;3.60;;;7.70;99.90;;;;;;5104781;28;20830;-74
2021/01/20 04:06:55;;;;;;;4.33;2.63;;;7.60;99.90;;;;;;5076013;28;20516;-75
2021/01/20 04:09:20;;;;;;;3.50;2.63;;;7.80;99.90;;;;;;5111246;28;20252;-75
2021/01/20 04:11:46;;;;;;;3.83;3.10;;;7.80;99.90;;;;;;5092606;28;20609;-75
2021/01/20 04:14:12;;;;;;;2.77;2.50;;;7.60;99.90;;;;;;5109260;28;20223;-74
2021/01/20 04:16:37;;;;;;;3.60;3.30;;;7.90;99.90;;;;;;5116067;27;20241;-74
2021/01/20 04:19:03;;;;;;;5.23;3.20;;;7.80;99.90;;;;;;5076084;28;20191;-75
2021/01/20 04:21:30;;;;;;;2.80;2.60;;;7.80;99.90;;;;;;5092483;28;20272;-74
2021/01/20 04:23:55;;;;;;;3.50;2.93;;;7.60;99.90;;;;;;5092051;28;20706;-74
2021/01/20 04:26:23;;;;;;;3.50;2.80;;;7.80;99.90;;;;;;5092800;28;20432;-75
2021/01/20 04:28:49;;;;;;;3.70;2.60;;;7.60;99.90;;;;;;5092395;28;20421;-75
2021/01/20 04:31:15;;;;;;;3.73;3.00;;;7.80;99.90;;;;;;5095435;28;20247;-75
2021/01/20 04:33:41;;;;;;;3.77;3.10;;;8.00;99.90;;;;;;5114737;27;20195;-74
2021/01/20 04:36:07;;;;;;;3.63;2.87;;;7.70;99.90;;;;;;5110293;28;20184;-74
2021/01/20 04:38:34;;;;;;;6.23;3.20;;;7.90;99.90;;;;;;5110457;28;20718;-75
2021/01/20 04:40:59;;;;;;;3.27;2.70;;;7.90;99.90;;;;;;5110280;28;20770;-74
2021/01/20 04:43:25;;;;;;;3.77;2.73;;;7.90;99.90;;;;;;5091618;28;20415;-75
2021/01/20 04:45:54;;;;;;;4.40;3.03;;;7.90;99.90;;;;;;5105998;28;20249;-75
2021/01/20 04:48:20;;;;;;;3.40;2.77;;;8.10;99.90;;;;;;5110271;28;20417;-75
2021/01/20 04:50:51;;;;;;;5.60;3.13;;;8.00;99.90;;;;;;5110253;28;20409;-75
2021/01/20 04:53:19;;;;;;;3.70;2.80;;;7.90;99.90;;;;;;5068403;28;20475;-75
2021/01/20 04:55:46;;;;;;;3.10;2.80;;;8.10;99.90;;;;;;5077753;28;20421;-75
2021/01/20 04:58:13;;;;;;;3.30;2.63;;;8.10;99.90;;;;;;5074307;28;20461;-75
2021/01/20 05:00:43;;;;;;;3.50;3.00;;;7.80;99.90;;;;;;5110727;27;20427;-75
2021/01/20 05:03:11;;;;;;;3.20;2.63;;;8.10;99.90;;;;;;5111659;27;20450;-75
2021/01/20 05:05:37;;;;;;;3.37;2.57;;;8.10;99.90;;;;;;5106058;28;20468;-75
2021/01/20 05:08:04;;;;;;;3.00;2.63;;;7.90;99.90;;;;;;5079569;28;20185;-75
2021/01/20 05:10:30;;;;;;;4.67;2.93;;;8.10;99.90;;;;;;5088147;28;20426;-75
2021/01/20 05:12:56;;;;;;;3.53;3.00;;;8.00;99.90;;;;;;5108274;28;20831;-75
2021/01/20 05:15:31;;;;;;;4.47;4.07;;;8.10;99.90;;;;;;5092301;28;20494;-75
2021/01/20 05:18:05;;;;;;;3.43;3.10;;;8.00;99.90;;;;;;5110340;27;20207;-75
2021/01/20 05:20:36;;;;;;;2.90;2.50;;;8.00;99.90;;;;;;5049840;28;20548;-75
2021/01/20 05:23:04;;;;;;;4.30;3.17;;;8.00;99.90;;;;;;5093655;28;20450;-75
2021/01/20 05:25:31;;;;;;;5.70;3.10;;;7.80;99.90;;;;;;5109411;28;20410;-75
2021/01/20 05:27:58;;;;;;;3.87;2.60;;;8.10;99.90;;;;;;5109253;28;20421;-74
2021/01/20 05:30:24;;;;;;;3.90;3.20;;;7.90;99.90;;;;;;5108484;28;20524;-75
2021/01/20 05:32:57;;;;;;;3.73;3.00;;;7.80;99.90;;;;;;5088044;27;20422;-75
2021/01/20 05:35:23;;;;;;;3.70;3.30;;;7.90;99.90;;;;;;5075499;28;20432;-75
2021/01/20 05:37:48;;;;;;;3.67;3.37;;;7.80;99.90;;;;;;5107389;28;20449;-75
2021/01/20 05:40:16;;;;;;;4.57;2.80;;;7.80;99.90;;;;;;5101697;28;20199;-75
2021/01/20 05:42:44;;;;;;;5.77;3.37;;;7.80;99.90;;;;;;5090809;28;20676;-74
2021/01/20 05:45:11;;;;;;;4.30;2.93;;;7.70;99.90;;;;;;5107559;28;20430;-75
2021/01/20 05:47:37;;;;;;;4.00;3.40;;;7.80;99.90;;;;;;5105797;28;20421;-75
2021/01/20 05:50:07;;;;;;;4.07;3.00;;;7.70;99.90;;;;;;5097782;28;20437;-75
2021/01/20 05:52:33;;;;;;;6.37;3.40;;;7.50;99.90;;;;;;5095493;28;20413;-74
2021/01/20 05:55:09;;;;;;;2.90;2.47;;;7.50;99.90;;;;;;5108545;28;20416;-75
2021/01/20 05:57:34;;;;;;;4.50;2.90;;;7.80;99.90;;;;;;5090714;28;20677;-75
2021/01/20 06:00:14;;;;;;;4.33;3.00;;;7.70;99.90;;;;;;5089863;28;20499;-75
2021/01/20 06:02:42;;;;;;;3.47;2.67;;;7.60;99.90;;;;;;5073240;28;20624;-75
2021/01/20 06:05:10;;;;;;;4.00;2.77;;;7.70;99.90;;;;;;5089722;28;20411;-75
2021/01/20 06:07:37;;;;;;;3.53;2.60;;;7.60;99.90;;;;;;5086285;28;20444;-75
2021/01/20 06:10:04;;;;;;;3.10;2.50;;;7.70;99.90;;;;;;5105823;27;20429;-76
2021/01/20 06:12:32;;;;;;;3.77;2.77;;;7.90;99.90;;;;;;5072599;28;20453;-77
2021/01/20 06:14:58;;;;;;;4.23;2.70;;;7.70;99.90;;;;;;5105467;27;21033;-76
2021/01/20 06:17:34;;;;;;;2.30;2.10;;;7.70;99.90;;;;;;5068644;28;20462;-78
2021/01/20 06:20:05;;;;;;;3.87;3.00;;;7.90;99.90;;;;;;5109518;28;20417;-77
2021/01/20 06:22:32;;;;;;;4.30;2.63;;;8.00;99.90;;;;;;5106475;28;20429;-77
2021/01/20 06:25:04;;;;;;;3.23;2.93;;;7.90;99.90;;;;;;5106021;28;20525;-74
2021/01/20 06:27:45;;;;;;;3.53;2.83;;;8.20;99.90;;;;;;5088117;28;20429;-75
2021/01/20 06:30:37;;;;;;;2.60;2.20;;;8.30;99.90;;;;;;5105649;28;20445;-74
2021/01/20 06:33:07;;;;;;;3.20;2.50;;;8.20;99.90;;;;;;5095406;28;20906;-74
2021/01/20 06:35:43;;;;;;;3.17;2.37;;;8.30;99.90;;;;;;5088383;28;20504;-75
2021/01/20 06:38:27;;;;;;;2.90;2.13;;;8.20;99.90;;;;;;5081379;28;20462;-75
2021/01/20 06:41:00;;;;;;;3.07;2.33;;;8.50;99.90;;;;;;5103391;28;20421;-75
2021/01/20 06:43:48;;;;;;;2.87;2.00;;;8.30;99.90;;;;;;5105691;28;21008;-75
2021/01/20 06:46:25;;;;;;;3.17;2.40;;;8.20;99.90;;;;;;5108886;28;20760;-74
2021/01/20 06:48:54;;;;;;;2.17;2.00;;;8.40;99.90;;;;;;5088428;28;20415;-75
2021/01/20 06:51:27;;;;;;;2.33;2.10;;;8.60;99.90;;;;;;5088292;28;20816;-75
2021/01/20 06:54:17;;;;;;;2.80;2.47;;;8.50;99.90;;;;;;5105546;28;20804;-75
2021/01/20 06:56:47;;;;;;;2.77;2.27;;;8.50;99.90;;;;;;5105997;28;20453;-75
2021/01/20 06:59:22;;;;;;;2.50;2.10;;;8.50;99.90;;;;;;5071712;28;20413;-75
2021/01/20 07:02:03;;;;;;;2.90;2.57;;;8.70;99.90;;;;;;5103783;28;20437;-75
2021/01/20 07:04:40;;;;;;;3.23;2.03;;;8.30;99.90;;;;;;5108332;28;20504;-75
2021/01/20 07:07:51;;;;;;;2.53;1.77;;;8.40;99.90;;;;;;5096429;28;20420;-75
2021/01/20 07:10:21;;;;;;;2.53;1.93;;;8.50;99.90;;;;;;5110073;28;20477;-75
2021/01/20 07:13:09;;;;;;;1.77;1.63;;;8.40;99.90;;;;;;5110416;28;20457;-75
2021/01/20 07:15:38;;;;;;;2.53;2.33;;;8.40;99.90;;;;;;5090740;28;20433;-75
2021/01/20 07:18:05;;;;;;;5.73;2.20;;;8.60;99.90;;;;;;5082857;28;20827;-73
2021/01/20 07:20:32;;;;;;;2.37;1.83;;;8.40;99.90;;;;;;5117546;27;20544;-73
2021/01/20 07:22:59;;;;;;;2.63;2.30;;;8.40;99.90;;;;;;5112722;27;20436;-73
2021/01/20 07:25:28;;;;;;;3.17;2.60;;;8.20;99.90;;;;;;5107692;28;20516;-73
2021/01/20 07:27:54;;;;;;;2.63;2.10;;;8.50;99.90;;;;;;5090146;28;20405;-74
2021/01/20 07:30:20;;;;;;;2.40;2.20;;;8.70;99.90;;;;;;5072589;28;20436;-73
2021/01/20 07:32:46;;;;;;;1.90;1.70;;;8.40;99.90;;;;;;5104191;28;20218;-73
2021/01/20 07:35:27;;;;;;;2.20;2.00;;;8.20;99.90;;;;;;5102190;28;20442;-73
2021/01/20 07:38:18;;;;;;;2.97;2.30;;;8.60;99.90;;;;;;5108877;28;20457;-73
2021/01/20 07:40:44;;;;;;;2.03;1.70;;;8.40;99.90;;;;;;5109407;28;20521;-73
2021/01/20 07:43:23;;;;;;;2.50;1.83;;;8.40;99.90;;;;;;5090706;28;20509;-73
2021/01/20 07:45:52;;;;;;;2.93;2.63;;;8.40;99.90;;;;;;5104772;28;20464;-73
2021/01/20 07:48:29;;;;;;;2.40;2.20;;;8.60;99.90;;;;;;5077289;28;20956;-73
2021/01/20 07:50:54;;;;;;;2.13;1.50;;;8.30;99.90;;;;;;5096927;27;20507;-73
2021/01/20 07:53:20;;;;;;;2.93;2.20;;;8.40;99.90;;;;;;5093676;28;20521;-73
2021/01/20 07:55:52;;;;;;;3.20;2.20;;;8.50;99.90;;;;;;5106729;28;20855;-73
2021/01/20 07:58:23;;;;;;;2.77;2.17;;;8.50;99.90;;;;;;5108955;28;20579;-73
2021/01/20 08:00:49;;;;;;;1.93;1.70;;;8.40;99.90;;;;;;5074477;28;20453;-73
2021/01/20 08:03:15;;;;;;;2.20;1.83;;;8.50;99.90;;;;;;5094712;28;20445;-73
2021/01/20 08:05:43;;;;;;;2.50;1.87;;;8.60;99.90;;;;;;5108712;27;20193;-73
2021/01/20 08:08:11;;;;;;;2.33;1.70;;;8.70;99.90;;;;;;5090555;28;20429;-73
2021/01/20 08:10:37;;;;;;;3.13;2.20;;;8.40;99.90;;;;;;5109112;28;20417;-73
2021/01/20 08:13:06;;;;;;;2.63;1.97;;;8.40;99.90;;;;;;5055108;28;20450;-73
2021/01/20 08:15:37;;;;;;;2.50;2.00;;;8.90;99.90;;;;;;5108141;28;20646;-73
2021/01/20 08:18:04;;;;;;;1.70;1.60;;;8.60;99.90;;;;;;5089314;28;20473;-73
2021/01/20 08:20:35;;;;;;;2.70;2.13;;;8.70;99.90;;;;;;5090378;28;20432;-73
2021/01/20 08:23:03;;;;;;;2.07;1.80;;;8.70;99.90;;;;;;5107368;28;20908;-73
2021/01/20 08:25:29;;;;;;;1.83;1.70;;;8.70;99.90;;;;;;5107991;28;20514;-73
2021/01/20 08:27:55;;;;;;;2.20;1.80;;;8.80;99.90;;;;;;5089624;28;20852;-73
2021/01/20 08:30:34;;;;;;;5.20;1.97;;;8.80;99.90;;;;;;5113632;27;20183;-73
2021/01/20 08:33:01;;;;;;;3.30;2.00;;;8.90;99.90;;;;;;5110833;27;20187;-73
2021/01/20 08:35:28;;;;;;;3.50;2.30;;;8.90;99.90;;;;;;5115094;27;20432;-73
2021/01/20 08:37:55;;;;;;;3.90;1.80;;;8.90;99.90;;;;;;5091221;28;20449;-73
2021/01/20 08:40:21;;;;;;;5.63;2.50;;;8.70;99.90;;;;;;5080803;28;20683;-73
2021/01/20 08:42:46;;;;;;;2.03;1.83;;;8.80;99.90;;;;;;5089220;28;20418;-73
2021/01/20 08:45:16;;;;;;;2.63;2.10;;;8.70;99.90;;;;;;5107566;28;20422;-73
2021/01/20 08:47:56;;;;;;;3.00;2.03;;;8.80;99.90;;;;;;5108394;28;20183;-74
2021/01/20 08:50:28;;;;;;;2.77;2.07;;;8.70;99.90;;;;;;5106540;28;20460;-74
2021/01/20 08:52:55;;;;;;;4.63;2.40;;;8.70;99.90;;;;;;5103333;28;20562;-73
2021/01/20 08:55:29;;;;;;;5.17;2.13;;;8.40;99.90;;;;;;5091205;28;20433;-73
2021/01/20 08:58:26;;;;;;;2.63;2.30;;;8.60;99.90;;;;;;5108730;27;20506;-73
2021/01/20 09:01:04;;;;;;;3.47;2.03;;;8.50;99.90;;;;;;5109431;27;20975;-73
2021/01/20 09:03:31;;;;;;;3.57;2.23;;;8.70;99.90;;;;;;5104943;27;20892;-73
2021/01/20 09:05:58;;;;;;;2.53;2.20;;;8.80;99.90;;;;;;5112881;27;20784;-74
2021/01/20 09:08:26;;;;;;;3.67;1.90;;;8.90;99.90;;;;;;5074809;28;20449;-74
2021/01/20 09:10:53;;;;;;;2.80;2.33;;;9.00;99.90;;;;;;5099276;27;20455;-74
2021/01/20 09:13:20;;;;;;;2.63;2.00;;;8.80;99.90;;;;;;5100226;28;20494;-74
2021/01/20 09:15:47;;;;;;;3.20;2.17;;;9.10;99.90;;;;;;5088480;28;20449;-74
2021/01/20 09:18:14;;;;;;;2.50;2.30;;;9.00;99.90;;;;;;5103745;28;20867;-73
2021/01/20 09:20:39;;;;;;;3.10;2.10;;;9.10;99.90;;;;;;5104037;27;20851;-73
2021/01/20 09:23:06;;;;;;;2.80;2.10;;;9.20;99.90;;;;;;5114798;27;20547;-73
2021/01/20 09:25:32;;;;;;;2.97;2.17;;;9.30;99.90;;;;;;5087230;28;20434;-73
2021/01/20 09:27:58;;;;;;;2.43;2.17;;;9.30;99.90;;;;;;5112937;27;20517;-73
2021/01/20 09:30:24;;;;;;;3.13;2.33;;;9.20;99.90;;;;;;5100956;28;20991;-74
2021/01/20 09:32:50;;;;;;;4.27;2.77;;;9.30;99.90;;;;;;5105410;28;20187;-74
2021/01/20 09:35:17;;;;;;;5.43;2.70;;;9.20;99.90;;;;;;5088475;28;20453;-73
2021/01/20 09:37:47;;;;;;;2.00;1.80;;;9.30;99.90;;;;;;5088980;28;20712;-73
2021/01/20 09:40:17;;;;;;;2.57;2.27;;;9.50;99.90;;;;;;5106440;28;20421;-74
2021/01/20 09:42:49;;;;;;;4.87;2.73;;;9.50;99.90;;;;;;5100744;28;20429;-74
2021/01/20 09:45:17;;;;;;;4.33;2.50;;;9.60;99.90;;;;;;5091556;28;20453;-74
2021/01/20 09:47:46;;;;;;;3.27;2.33;;;9.80;99.90;;;;;;5107015;28;20425;-74
2021/01/20 09:50:16;;;;;;;3.70;2.97;;;9.90;99.90;;;;;;5106668;28;20478;-74
2021/01/20 09:52:47;;;;;;;5.27;2.80;;;10.30;99.90;;;;;;5088420;28;20467;-74
2021/01/20 09:55:14;;;;;;;3.23;2.93;;;10.90;99.90;;;;;;5106424;28;20908;-74
2021/01/20 09:57:40;;;;;;;3.20;2.90;;;11.30;98.90;;;;;;5071075;28;20480;-74
2021/01/20 10:00:08;;;;;;;5.50;2.90;;;11.60;98.30;;;;;;5107448;27;20418;-74
2021/01/20 10:02:33;;;;;;;3.07;2.53;;;11.90;97.30;;;;;;5103440;28;20416;-74
2021/01/20 10:04:59;;;;;;;3.27;2.70;;;12.10;96.50;;;;;;5074979;28;20484;-74
2021/01/20 10:07:25;;;;;;;3.07;2.77;;;12.00;95.50;;;;;;5106843;28;20191;-74
2021/01/20 10:09:51;;;;;;;3.23;2.90;;;12.20;95.80;;;;;;5088462;28;20191;-73
2021/01/20 10:12:20;;;;;;;3.73;2.80;;;12.10;95.00;;;;;;5087940;28;20735;-73
2021/01/20 10:14:47;;;;;;;3.70;2.67;;;11.90;95.30;;;;;;5106166;28;20653;-75
2021/01/20 10:17:12;;;;;;;5.17;2.83;;;12.20;96.10;;;;;;5071194;28;20466;-75
2021/01/20 10:19:38;;;;;;;3.30;2.83;;;12.70;94.70;;;;;;5106545;28;20482;-73
2021/01/20 10:22:04;;;;;;;4.30;2.97;;;13.90;93.00;;;;;;5105042;28;20530;-74
2021/01/20 10:24:30;;;;;;;4.57;3.07;;;15.80;89.80;;;;;;5105936;28;20425;-75
2021/01/20 10:26:57;;;;;;;3.23;2.57;;;16.80;82.40;;;;;;5105839;28;20191;-75
2021/01/20 10:29:24;;;;;;;4.50;2.63;;;17.20;77.70;;;;;;5055816;28;20441;-75
2021/01/20 10:31:50;;;;;;;3.00;2.70;;;18.00;75.50;;;;;;5107534;28;20509;-75
2021/01/20 10:34:16;;;;;;;3.50;2.70;;;18.60;70.70;;;;;;5104778;28;20516;-75
2021/01/20 10:36:41;;;;;;;3.50;2.60;;;19.80;66.30;;;;;;5100501;28;20340;-75
2021/01/20 10:39:09;;;;;;;3.93;3.10;;;20.60;61.50;;;;;;5110593;28;20187;-75
2021/01/20 10:41:36;;;;;;;3.67;2.90;;;21.10;59.40;;;;;;5075248;28;20285;-75
2021/01/20 10:44:02;;;;;;;4.23;3.10;;;20.80;56.60;;;;;;5091356;28;20905;-74
2021/01/20 10:46:28;;;;;;;2.80;2.43;;;19.30;59.00;;;;;;5101021;28;20417;-74
2021/01/20 10:48:56;;;;;;;3.10;2.53;;;17.10;64.00;;;;;;5091019;28;20561;-75
2021/01/20 10:51:22;;;;;;;4.03;2.60;;;15.80;68.40;;;;;;5109338;28;20425;-75
2021/01/20 10:53:48;;;;;;;3.03;2.40;;;15.10;70.70;;;;;;5096906;28;20832;-74
2021/01/20 10:56:15;;;;;;;3.20;2.37;;;14.30;73.40;;;;;;5095963;28;20567;-75
2021/01/20 10:58:41;;;;;;;2.70;2.50;;;14.00;74.70;;;;;;5094040;27;20731;-75
2021/01/20 11:01:07;;;;;;;3.00;2.30;;;13.80;75.80;;;;;;5108922;27;20459;-75
2021/01/20 11:03:32;;;;;;;2.67;2.43;;;13.80;76.50;;;;;;5093543;28;20181;-75
2021/01/20 11:05:58;;;;;;;2.50;2.30;;;13.80;76.40;;;;;;5086157;27;20202;-74
2021/01/20 11:08:24;;;;;;;3.63;2.63;;;13.70;78.70;;;;;;5073307;28;20227;-75
2021/01/20 11:10:50;;;;;;;2.93;2.37;;;13.70;78.30;;;;;;5089870;28;20196;-75
2021/01/20 11:13:17;;;;;;;4.30;2.53;;;13.50;78.80;;;;;;5090127;28;20187;-74
2021/01/20 11:15:46;;;;;;;3.73;2.50;;;12.90;78.60;;;;;;5100251;27;20202;-74
2021/01/20 11:18:14;;;;;;;5.57;3.00;;;12.70;81.10;;;;;;5090000;28;20462;-74
2021/01/20 11:20:41;;;;;;;3.67;2.97;;;12.80;81.20;;;;;;5107049;28;20429;-74
2021/01/20 11:23:10;;;;;;;4.93;2.37;;;12.30;81.40;;;;;;5090760;28;20417;-75
2021/01/20 11:25:42;;;;;;;2.90;2.63;;;12.00;83.40;;;;;;5074324;28;20413;-74
2021/01/20 11:28:07;;;;;;;3.10;2.40;;;11.80;84.30;;;;;;5065490;28;20438;-74
2021/01/20 11:30:33;;;;;;;3.97;3.17;;;12.00;86.30;;;;;;5076449;28;20453;-74
2021/01/20 11:32:59;;;;;;;4.20;2.60;;;12.70;83.10;;;;;;5109703;28;20195;-74
2021/01/20 11:35:25;;;;;;;4.30;2.63;;;12.80;81.30;;;;;;5110913;28;20194;-74
2021/01/20 11:37:56;;;;;;;3.60;2.57;;;12.90;81.70;;;;;;5090778;28;20211;-74
2021/01/20 11:40:25;;;;;;;4.70;3.20;;;12.50;82.70;;;;;;5091095;28;20192;-74
2021/01/20 11:42:57;;;;;;;3.53;2.40;;;12.00;83.30;;;;;;5074352;28;21322;-74
2021/01/20 11:45:26;;;;;;;3.30;2.53;;;11.50;83.90;;;;;;5086161;28;20545;-74
2021/01/20 11:47:52;;;;;;;2.90;2.60;;;11.00;84.50;;;;;;5099712;28;20422;-74
2021/01/20 11:50:19;;;;;;;6.97;2.83;;;10.90;86.30;;;;;;5089935;28;20429;-75
2021/01/20 11:52:45;;;;;;;3.10;2.60;;;11.00;87.60;;;;;;5074894;28;20429;-74
2021/01/20 11:55:12;;;;;;;3.20;2.40;;;11.10;88.80;;;;;;5110704;28;20441;-74
2021/01/20 11:57:38;;;;;;;2.67;2.47;;;11.10;88.50;;;;;;5072113;28;20462;-74
2021/01/20 12:00:06;;;;;;;3.33;2.70;;;11.80;87.20;;;;;;5095622;28;20425;-74
2021/01/20 12:02:32;;;;;;;3.87;2.83;;;12.50;83.30;;;;;;5108835;28;20573;-74
2021/01/20 12:04:58;;;;;;;4.33;2.70;;;12.50;83.00;;;;;;5092793;28;20429;-74
2021/01/20 12:07:26;;;;;;;4.40;2.97;;;12.50;83.30;;;;;;5073774;28;20188;-74
2021/01/20 12:09:52;;;;;;;4.23;2.83;;;12.40;83.40;;;;;;5108908;28;20194;-74
2021/01/20 12:12:18;;;;;;;3.80;3.40;;;12.10;84.10;;;;;;5108534;28;20464;-74
2021/01/20 12:14:44;;;;;;;3.27;2.40;;;11.50;84.20;;;;;;5108861;27;20433;-74
2021/01/20 12:17:10;;;;;;;4.50;2.73;;;11.50;86.00;;;;;;5080321;28;20601;-74
2021/01/20 12:19:35;;;;;;;3.40;2.40;;;11.00;88.40;;;;;;5097459;28;21448;-74
2021/01/20 12:22:01;;;;;;;2.93;2.50;;;11.10;88.10;;;;;;5078724;28;20184;-74
2021/01/20 12:24:27;;;;;;;3.30;2.77;;;10.70;88.40;;;;;;5068994;28;20199;-74
2021/01/20 12:26:56;;;;;;;3.67;2.97;;;10.70;90.20;;;;;;5089299;28;20189;-74
2021/01/20 12:29:21;;;;;;;3.93;2.10;;;10.50;89.90;;;;;;5089835;28;20623;-74
2021/01/20 12:31:47;;;;;;;3.10;2.80;;;10.70;89.80;;;;;;5071271;27;20446;-74
2021/01/20 12:34:13;;;;;;;3.10;2.73;;;10.60;89.00;;;;;;5104909;28;20235;-74
2021/01/20 12:36:38;;;;;;;2.40;2.20;;;11.10;89.40;;;;;;5063985;28;20209;-74
2021/01/20 12:39:04;;;;;;;3.33;2.60;;;11.40;88.10;;;;;;5082341;28;20256;-74
2021/01/20 12:41:30;;;;;;;3.93;2.57;;;11.40;88.40;;;;;;5091718;28;20192;-74
2021/01/20 12:43:56;;;;;;;3.27;2.90;;;11.60;89.80;;;;;;5107636;28;20421;-74
2021/01/20 12:46:22;;;;;;;3.67;2.27;;;11.40;87.80;;;;;;5110302;27;20701;-74
2021/01/20 12:48:47;;;;;;;2.40;2.20;;;11.20;87.50;;;;;;5090357;28;20223;-74
2021/01/20 12:51:13;;;;;;;4.30;2.80;;;11.20;89.40;;;;;;5092284;28;20192;-74
2021/01/20 12:53:39;;;;;;;3.33;3.00;;;10.90;88.40;;;;;;5107079;28;20191;-74
2021/01/20 12:56:05;;;;;;;3.07;2.47;;;10.90;89.30;;;;;;5040870;28;20321;-74
2021/01/20 12:58:30;;;;;;;4.80;2.63;;;10.80;88.40;;;;;;5105835;27;20227;-74
2021/01/20 13:00:56;;;;;;;3.07;2.70;;;10.60;90.30;;;;;;5088918;27;20436;-74
2021/01/20 13:03:22;;;;;;;3.33;2.67;;;10.70;90.20;;;;;;5085195;28;20439;-74